createdAt,value
2023-02-23T00:01:45.590Z,17.48
2023-02-23T00:04:18.082Z,18.37
2023-02-23T00:06:49.493Z,17.85
2023-02-23T00:09:27.238Z,16.37
2023-02-23T00:12:01.133Z,16.25
2023-02-23T00:14:32.392Z,16.52
2023-02-23T00:17:23.739Z,15.58
2023-02-23T00:20:23.764Z,15.70
2023-02-23T00:22:44.766Z,17.87
2023-02-23T00:25:18.008Z,14.93
2023-02-23T00:27:56.975Z,13.32
2023-02-23T00:30:29.493Z,14.80
2023-02-23T00:33:00.755Z,14.05
2023-02-23T00:35:31.619Z,13.03
2023-02-23T00:38:02.507Z,13.15
2023-02-23T00:40:37.834Z,13.08
2023-02-23T00:43:08.869Z,12.65
2023-02-23T00:45:40.130Z,13.22
2023-02-23T00:48:11.934Z,12.85
2023-02-23T00:50:42.923Z,15.65
2023-02-23T00:53:14.144Z,14.65
2023-02-23T00:55:45.277Z,12.95
2023-02-23T00:58:18.190Z,13.08
2023-02-23T01:00:49.731Z,13.15
2023-02-23T01:03:20.800Z,11.80
2023-02-23T01:05:51.977Z,12.65
2023-02-23T01:12:06.432Z,13.58
2023-02-23T01:14:39.095Z,12.68
2023-02-23T01:17:10.410Z,13.35
2023-02-23T01:22:19.873Z,12.63
2023-02-23T01:24:51.287Z,11.83
2023-02-23T01:27:22.725Z,14.15
2023-02-23T01:29:53.770Z,11.90
2023-02-23T01:32:30.645Z,12.25
2023-02-23T01:35:04.701Z,12.55
2023-02-23T01:37:37.360Z,13.10
2023-02-23T01:40:16.484Z,11.43
2023-02-23T01:42:49.598Z,12.00
2023-02-23T01:45:30.212Z,13.35
2023-02-23T01:48:05.161Z,12.28
2023-02-23T01:50:50.560Z,12.88
2023-02-23T01:53:25.890Z,12.90
2023-02-23T01:56:03.367Z,13.90
2023-02-23T01:58:38.286Z,14.78
2023-02-23T02:01:10.971Z,14.05
2023-02-23T02:03:44.826Z,15.98
2023-02-23T02:06:18.017Z,13.72
2023-02-23T02:08:55.975Z,13.93
2023-02-23T02:11:35.372Z,14.13
2023-02-23T02:14:15.635Z,15.75
2023-02-23T02:17:19.445Z,15.93
2023-02-23T02:20:21.108Z,14.28
2023-02-23T02:23:16.391Z,15.28
2023-02-23T02:25:56.363Z,15.20
2023-02-23T02:28:42.777Z,15.85
2023-02-23T02:34:58.155Z,16.77
2023-02-23T02:37:43.727Z,15.03
2023-02-23T02:40:23.573Z,14.78
2023-02-23T02:46:31.911Z,16.17
2023-02-23T02:49:10.045Z,14.53
2023-02-23T02:51:46.398Z,14.75
2023-02-23T02:54:35.019Z,14.55
2023-02-23T02:57:08.149Z,14.55
2023-02-23T03:03:26.331Z,14.25
2023-02-23T03:06:15.949Z,14.47
2023-02-23T03:09:16.910Z,14.43
2023-02-23T03:12:14.048Z,14.18
2023-02-23T03:15:19.455Z,12.68
2023-02-23T03:18:10.408Z,13.90
2023-02-23T03:24:15.768Z,14.20
2023-02-23T03:27:09.608Z,12.75
2023-02-23T03:30:12.937Z,12.65
2023-02-23T03:33:09.792Z,11.97
2023-02-23T03:36:18.464Z,11.78
2023-02-23T03:39:12.030Z,11.95
2023-02-23T03:42:02.650Z,12.30
2023-02-23T03:44:53.586Z,11.28
2023-02-23T03:47:45.223Z,12.18
2023-02-23T03:50:42.779Z,12.05
2023-02-23T03:53:34.295Z,12.20
2023-02-23T03:56:26.510Z,12.07
2023-02-23T03:59:17.991Z,11.70
2023-02-23T04:02:09.531Z,11.10
2023-02-23T04:05:00.196Z,11.43
2023-02-23T04:07:50.057Z,10.75
2023-02-23T04:10:39.435Z,11.78
2023-02-23T04:13:18.175Z,12.23
2023-02-23T04:15:52.001Z,11.15
2023-02-23T04:18:28.846Z,10.88
2023-02-23T04:23:31.938Z,11.03
2023-02-23T04:26:03.428Z,11.10
2023-02-23T04:28:34.868Z,10.03
2023-02-23T04:31:06.214Z,10.65
2023-02-23T04:33:38.856Z,10.18
2023-02-23T04:36:10.740Z,11.78
2023-02-23T04:38:42.140Z,9.28
2023-02-23T04:41:13.754Z,10.60
2023-02-23T04:43:45.253Z,11.53
2023-02-23T04:46:18.691Z,11.05
2023-02-23T04:48:51.064Z,11.15
2023-02-23T04:51:22.361Z,11.80
2023-02-23T04:53:53.606Z,11.83
2023-02-23T04:56:27.235Z,11.63
2023-02-23T04:58:57.338Z,10.68
2023-02-23T05:01:33.139Z,11.18
2023-02-23T05:04:04.943Z,12.35
2023-02-23T05:06:44.745Z,11.95
2023-02-23T05:09:17.219Z,12.10
2023-02-23T05:11:48.491Z,11.10
2023-02-23T05:14:20.639Z,10.82
2023-02-23T05:16:52.417Z,11.18
2023-02-23T05:19:23.963Z,11.55
2023-02-23T05:21:57.949Z,10.63
2023-02-23T05:24:35.173Z,10.72
2023-02-23T05:27:06.533Z,10.43
2023-02-23T05:29:38.497Z,11.22
2023-02-23T05:32:09.738Z,11.33
2023-02-23T05:34:41.069Z,10.43
2023-02-23T05:37:11.918Z,10.32
2023-02-23T05:39:43.522Z,11.18
2023-02-23T05:42:18.500Z,10.60
2023-02-23T05:44:49.375Z,10.90
2023-02-23T05:47:20.562Z,10.35
2023-02-23T05:49:53.674Z,10.35
2023-02-23T05:52:25.695Z,10.25
2023-02-23T05:54:56.917Z,10.15
2023-02-23T06:00:55.854Z,10.68
2023-02-23T06:03:27.624Z,10.08
2023-02-23T06:06:00.315Z,11.43
2023-02-23T06:08:31.448Z,10.93
2023-02-23T06:11:02.410Z,11.33
2023-02-23T06:13:33.839Z,12.03
2023-02-23T06:16:05.116Z,13.48
2023-02-23T06:18:35.927Z,11.08
2023-02-23T06:21:07.169Z,11.80
2023-02-23T06:23:38.943Z,11.93
2023-02-23T06:26:10.114Z,11.68
2023-02-23T06:28:41.078Z,12.18
2023-02-23T06:31:13.544Z,11.22
2023-02-23T06:33:44.660Z,11.25
2023-02-23T06:36:15.472Z,11.40
2023-02-23T06:38:48.446Z,11.80
2023-02-23T06:41:20.299Z,11.30
2023-02-23T06:43:55.877Z,10.63
2023-02-23T06:46:26.949Z,10.88
2023-02-23T06:49:01.129Z,11.22
2023-02-23T06:51:32.065Z,12.20
2023-02-23T06:54:03.154Z,11.18
2023-02-23T06:56:34.141Z,10.68
2023-02-23T06:59:08.583Z,11.93
2023-02-23T07:01:39.635Z,11.50
2023-02-23T07:04:10.617Z,10.53
2023-02-23T07:06:42.007Z,10.93
2023-02-23T07:09:13.065Z,10.63
2023-02-23T07:11:46.273Z,11.50
2023-02-23T07:14:26.116Z,11.22
2023-02-23T07:16:50.614Z,11.00
2023-02-23T07:19:21.938Z,10.43
2023-02-23T07:21:57.063Z,10.48
2023-02-23T07:24:28.972Z,10.88
2023-02-23T07:27:00.586Z,10.90
2023-02-23T07:29:31.801Z,11.18
2023-02-23T07:32:03.553Z,10.80
2023-02-23T07:34:34.742Z,11.25
2023-02-23T07:37:06.274Z,11.03
2023-02-23T07:39:41.829Z,11.05
2023-02-23T07:42:12.850Z,11.18
2023-02-23T07:44:47.905Z,10.90
2023-02-23T07:47:19.080Z,10.68
2023-02-23T07:49:50.193Z,11.95
2023-02-23T07:52:21.532Z,10.72
2023-02-23T07:54:54.178Z,11.35
2023-02-23T07:57:25.350Z,12.03
2023-02-23T07:59:56.561Z,12.20
2023-02-23T08:02:33.901Z,11.10
2023-02-23T08:05:05.002Z,11.30
2023-02-23T08:07:37.119Z,11.57
2023-02-23T08:10:08.785Z,11.28
2023-02-23T08:12:40.307Z,12.75
2023-02-23T08:15:12.401Z,12.50
2023-02-23T08:17:44.792Z,11.45
2023-02-23T08:20:15.995Z,12.53
2023-02-23T08:22:56.907Z,12.00
2023-02-23T08:25:29.854Z,11.73
2023-02-23T08:28:04.361Z,12.47
2023-02-23T08:30:35.246Z,11.73
2023-02-23T08:33:07.025Z,11.20
2023-02-23T08:35:41.237Z,12.20
2023-02-23T08:38:13.619Z,11.97
2023-02-23T08:40:45.183Z,12.68
2023-02-23T08:43:16.403Z,12.78
2023-02-23T08:45:47.348Z,12.55
2023-02-23T08:48:21.215Z,13.28
2023-02-23T08:51:04.462Z,12.60
2023-02-23T08:53:35.722Z,12.63
2023-02-23T08:56:08.832Z,12.30
2023-02-23T08:58:40.246Z,12.05
2023-02-23T09:01:13.833Z,12.65
2023-02-23T09:03:45.272Z,12.80
2023-02-23T09:06:18.975Z,12.37
2023-02-23T09:08:50.746Z,12.73
2023-02-23T09:11:22.304Z,12.45
2023-02-23T09:13:53.676Z,12.70
2023-02-23T09:16:25.108Z,12.78
2023-02-23T09:18:57.044Z,13.05
2023-02-23T09:21:31.488Z,12.75
2023-02-23T09:24:03.000Z,12.58
2023-02-23T09:26:46.020Z,13.70
2023-02-23T09:29:17.944Z,12.80
2023-02-23T09:31:49.693Z,12.53
2023-02-23T09:34:21.386Z,11.88
2023-02-23T09:36:53.283Z,13.80
2023-02-23T09:39:37.218Z,12.15
2023-02-23T09:42:14.688Z,12.90
2023-02-23T09:45:07.368Z,13.32
2023-02-23T09:47:53.336Z,13.22
2023-02-23T09:50:27.294Z,12.70
2023-02-23T09:53:06.248Z,13.00
2023-02-23T09:55:37.911Z,13.13
2023-02-23T09:58:14.756Z,13.13
2023-02-23T10:00:48.359Z,13.93
2023-02-23T10:03:37.634Z,12.13
2023-02-23T10:06:11.112Z,12.88
2023-02-23T10:09:11.158Z,12.50
2023-02-23T10:12:04.496Z,12.68
2023-02-23T10:14:54.819Z,12.95
2023-02-23T10:17:29.110Z,13.10
2023-02-23T10:20:09.162Z,12.75
2023-02-23T10:22:42.551Z,13.50
2023-02-23T10:25:27.160Z,13.53
2023-02-23T10:28:00.053Z,12.85
2023-02-23T10:30:37.708Z,12.93
2023-02-23T10:33:20.348Z,13.75
2023-02-23T10:35:54.048Z,13.40
2023-02-23T10:41:00.594Z,13.78
2023-02-23T10:43:31.554Z,13.60
2023-02-23T10:46:03.540Z,13.93
2023-02-23T10:48:44.371Z,18.98
2023-02-23T10:51:26.320Z,16.57
2023-02-23T10:53:57.308Z,14.50
2023-02-23T10:56:30.110Z,16.48
2023-02-23T10:59:02.315Z,14.68
2023-02-23T11:01:55.466Z,13.32
2023-02-23T11:04:35.926Z,13.75
2023-02-23T11:07:13.301Z,14.10
2023-02-23T11:09:47.788Z,13.98
2023-02-23T11:12:30.259Z,14.83
2023-02-23T11:15:06.473Z,16.27
2023-02-23T11:17:41.126Z,14.63
2023-02-23T11:20:37.236Z,13.90
2023-02-23T11:25:50.297Z,14.43
2023-02-23T11:28:33.131Z,14.33
2023-02-23T11:31:09.336Z,15.05
2023-02-23T11:33:43.943Z,14.85
2023-02-23T11:36:20.109Z,15.38
